Time;durP1;ratioP1;P1;durP2;ratioP2;P2;SDS_P1;SDS_P2;PMS_P1;PMS_P2;Temp;Humidity;BMP_temperature;BMP_pressure;BME280_temperature;BME280_humidity;BME280_pressure;Samples;Min_cycle;Max_cycle;Signal;HPM_P1;HPM_P2
2021/11/08 00:00:00;;;;;;;;;;;9.20;99.90;9.60;99968.00;;;;341902;28;83267;-88
2021/11/08 00:00:14;;;;;;;;;;;9.20;99.90;9.60;99962.00;;;;342941;28;87966;-88
2021/11/08 00:00:28;;;;;;;;;;;9.20;99.90;9.60;99958.00;;;;341827;28;82592;-87
2021/11/08 00:00:42;;;;;;;;;;;9.30;99.90;9.60;99963.00;;;;340197;28;89663;-87
2021/11/08 00:00:55;;;;;;;;;;;9.30;99.90;9.60;99967.00;;;;340295;28;82733;-88
2021/11/08 00:01:08;;;;;;;;;;;9.30;99.90;9.60;99970.00;;;;340112;28;90040;-88
2021/11/08 00:01:20;;;;;;;;;;;9.20;99.90;9.60;99964.00;;;;341616;28;83277;-87
2021/11/08 00:01:32;;;;;;;;;;;9.20;99.90;9.60;99965.00;;;;338957;28;87639;-87
2021/11/08 00:01:44;;;;;;;;;;;9.20;99.90;9.60;99959.00;;;;343240;28;83589;-88
2021/11/08 00:01:57;;;;;;;;;;;9.20;99.90;9.50;99965.00;;;;340152;28;88743;-87
2021/11/08 00:02:09;;;;;;;;;;;9.20;99.90;9.50;99968.00;;;;340550;28;83171;-87
2021/11/08 00:02:21;;;;;;;;;;;9.20;99.90;9.50;99963.00;;;;341525;28;92282;-88
2021/11/08 00:02:33;;;;;;;;;;;9.20;99.90;9.50;99964.00;;;;343285;28;83600;-88
2021/11/08 00:02:45;;;;;;;;;;;9.20;99.90;9.50;99968.00;;;;340135;28;91426;-87
2021/11/08 00:02:59;;;;;;;;;;;9.20;99.90;9.60;99964.00;;;;340494;28;83256;-87
2021/11/08 00:03:12;;;;;;;;;;;9.20;99.90;9.50;99964.00;;;;340196;28;88401;-87
2021/11/08 00:03:27;;;;;;;;;;;9.20;99.90;9.50;99961.00;;;;341932;28;82285;-87
2021/11/08 00:03:42;;;;;;;;;;;9.20;99.90;9.50;99965.00;;;;340344;28;88424;-87
2021/11/08 00:03:54;;;;;;;;;;;9.20;99.90;9.50;99959.00;;;;339843;28;83905;-87
2021/11/08 00:04:06;;;;;;;;;;;9.20;99.90;9.60;99960.00;;;;340299;28;90429;-87
2021/11/08 00:04:18;;;;;;;;;;;9.20;99.90;9.60;99961.00;;;;342026;28;82538;-88
2021/11/08 00:04:32;;;;;;;;;;;9.20;99.90;9.60;99953.00;;;;338703;28;90591;-87
2021/11/08 00:04:44;;;;;;;;;;;9.20;99.90;9.60;99965.00;;;;340373;28;83472;-87
2021/11/08 00:04:56;;;;;;;;;;;9.20;99.90;9.60;99959.00;;;;341366;28;91645;-87
2021/11/08 00:05:08;;;;;;;;;;;9.20;99.90;9.60;99958.00;;;;343148;28;83367;-87
2021/11/08 00:05:20;;;;;;;;;;;9.20;99.90;9.70;99965.00;;;;339892;28;90409;-88
2021/11/08 00:05:37;;;;;;;;;;;9.20;99.90;9.60;99955.00;;;;338926;28;83439;-88
2021/11/08 00:05:50;;;;;;;;;;;9.20;99.90;9.60;99962.00;;;;337756;28;88309;-88
2021/11/08 00:06:04;;;;;;;;;;;9.20;99.90;9.60;99960.00;;;;340489;28;83652;-88
2021/11/08 00:06:17;;;;;;;;;;;9.20;99.90;9.60;99960.00;;;;340184;28;91706;-87
2021/11/08 00:06:28;;;;;;;;;;;9.20;99.90;9.50;99960.00;;;;343385;28;83297;-88
2021/11/08 00:06:41;;;;;;;;;;;9.20;99.90;9.60;99963.00;;;;340202;28;88743;-87
2021/11/08 00:06:53;;;;;;;;;;;9.20;99.90;9.60;99960.00;;;;341539;28;83636;-88
2021/11/08 00:07:05;;;;;;;;;;;9.20;99.90;9.60;99968.00;;;;340846;28;91189;-88
2021/11/08 00:07:17;;;;;;;;;;;9.20;99.90;9.60;99961.00;;;;343308;28;83346;-88
2021/11/08 00:07:29;;;;;;;;;;;9.20;99.90;9.60;99960.00;;;;338833;28;88845;-88
2021/11/08 00:07:42;;;;;;;;;;;9.20;99.90;9.60;99963.00;;;;340608;28;83398;-88
2021/11/08 00:08:00;;;;;;;;;;;9.20;99.90;9.60;99957.00;;;;339273;28;88472;-87
2021/11/08 00:08:14;;;;;;;;;;;9.20;99.90;9.60;99963.00;;;;336589;28;83329;-87
2021/11/08 00:08:26;;;;;;;;;;;9.20;99.90;9.50;99963.00;;;;339827;28;90420;-88
2021/11/08 00:08:39;;;;;;;;;;;9.20;99.90;9.50;99963.00;;;;341898;28;83228;-87
2021/11/08 00:08:51;;;;;;;;;;;9.20;99.90;9.50;99955.00;;;;339957;28;90225;-87
2021/11/08 00:09:04;;;;;;;;;;;9.20;99.90;9.60;99958.00;;;;339285;28;83445;-87
2021/11/08 00:09:16;;;;;;;;;;;9.20;99.90;9.60;99962.00;;;;341462;28;92297;-87
2021/11/08 00:09:29;;;;;;;;;;;9.20;99.90;9.60;99963.00;;;;343368;28;83366;-87
2021/11/08 00:09:43;;;;;;;;;;;9.20;99.90;9.50;99957.00;;;;338986;28;88072;-87
2021/11/08 00:09:55;;;;;;;;;;;9.20;99.90;9.50;99954.00;;;;341139;28;83586;-87
2021/11/08 00:10:08;;;;;;;;;;;9.20;99.90;9.60;99952.00;;;;343453;28;92179;-87
2021/11/08 00:10:27;;;;;;;;;;;9.20;99.90;9.50;99955.00;;;;341850;28;83366;-88
2021/11/08 00:10:39;;;;;;;;;;;9.20;99.90;9.60;99966.00;;;;340137;28;90699;-87
2021/11/08 00:10:51;;;;;;;;;;;9.20;99.90;9.60;99955.00;;;;340612;28;82547;-87
2021/11/08 00:11:03;;;;;;;;;;;9.20;99.90;9.60;99962.00;;;;338791;28;91729;-87
2021/11/08 00:11:15;;;;;;;;;;;9.20;99.90;9.60;99954.00;;;;340382;28;82582;-88
2021/11/08 00:11:27;;;;;;;;;;;9.20;99.90;9.50;99961.00;;;;340165;28;88944;-88
2021/11/08 00:11:44;;;;;;;;;;;9.20;99.90;9.50;99957.00;;;;339254;28;82512;-87
2021/11/08 00:11:56;;;;;;;;;;;9.20;99.90;9.50;99959.00;;;;338552;28;87909;-88
2021/11/08 00:12:09;;;;;;;;;;;9.20;99.90;9.50;99956.00;;;;340407;28;83567;-88
2021/11/08 00:12:23;;;;;;;;;;;9.20;99.90;9.50;99959.00;;;;340138;28;89667;-87
2021/11/08 00:12:35;;;;;;;;;;;9.20;99.90;9.60;99955.00;;;;340397;28;82597;-88
2021/11/08 00:12:47;;;;;;;;;;;9.20;99.90;9.60;99959.00;;;;341582;28;89156;-88
2021/11/08 00:13:01;;;;;;;;;;;9.20;99.90;9.60;99965.00;;;;339074;28;83310;-87
2021/11/08 00:13:14;;;;;;;;;;;9.20;99.90;9.50;99962.00;;;;338720;28;89358;-88
2021/11/08 00:13:26;;;;;;;;;;;9.20;99.90;9.50;99960.00;;;;341478;28;84043;-87
2021/11/08 00:13:37;;;;;;;;;;;9.20;99.90;9.50;99966.00;;;;342976;28;89457;-87
2021/11/08 00:13:50;;;;;;;;;;;9.20;99.90;9.60;99960.00;;;;343383;28;82537;-87
2021/11/08 00:14:02;;;;;;;;;;;9.20;99.90;9.50;99955.00;;;;338787;28;89312;-87
2021/11/08 00:14:18;;;;;;;;;;;9.20;99.90;9.50;99965.00;;;;340662;28;82575;-87
2021/11/08 00:14:30;;;;;;;;;;;9.20;99.90;9.40;99963.00;;;;340115;28;88187;-87
2021/11/08 00:14:43;;;;;;;;;;;9.10;99.90;9.50;99957.00;;;;337943;28;83425;-87
2021/11/08 00:14:58;;;;;;;;;;;9.10;99.90;9.60;99958.00;;;;340233;28;88913;-87
2021/11/08 00:15:15;;;;;;;;;;;9.20;99.90;9.50;99960.00;;;;340594;28;83474;-88
2021/11/08 00:15:43;;;;;;;;;;;9.20;99.90;9.50;99964.00;;;;336203;28;88613;-88
2021/11/08 00:16:23;;;;;;;;;;;9.20;99.90;9.60;99954.00;;;;341735;28;87679;-87
2021/11/08 00:16:55;;;;;;;;;;;9.20;99.90;9.60;99953.00;;;;341555;28;87005;-88
2021/11/08 00:18:03;;;;;;;;;;;9.20;99.90;9.60;99955.00;;;;334858;29;88879;-88
2021/11/08 00:18:41;;;;;;;;;;;9.20;99.90;9.60;99950.00;;;;336408;28;91374;-87
2021/11/08 00:19:42;;;;;;;;;;;9.20;99.90;9.60;99944.00;;;;336576;28;87101;-88
2021/11/08 00:20:19;;;;;;;;;;;9.20;99.90;9.60;99941.00;;;;336398;28;91758;-88
2021/11/08 00:20:43;;;;;;;;;;;9.20;99.90;9.60;99939.00;;;;337508;28;86649;-87
2021/11/08 00:20:55;;;;;;;;;;;9.20;99.90;9.60;99940.00;;;;338999;28;88726;-87
2021/11/08 00:21:08;;;;;;;;;;;9.20;99.90;9.60;99930.00;;;;336378;28;86760;-87
2021/11/08 00:21:21;;;;;;;;;;;9.20;99.90;9.60;99935.00;;;;336583;28;87148;-87
2021/11/08 00:21:34;;;;;;;;;;;9.20;99.90;9.60;99937.00;;;;338882;28;86947;-87
2021/11/08 00:21:48;;;;;;;;;;;9.20;99.90;9.60;99939.00;;;;336407;28;90560;-87
2021/11/08 00:22:01;;;;;;;;;;;9.20;99.90;9.60;99932.00;;;;337060;28;87256;-87
2021/11/08 00:22:13;;;;;;;;;;;9.20;99.90;9.60;99935.00;;;;336443;28;89100;-87
2021/11/08 00:22:26;;;;;;;;;;;9.20;99.90;9.70;99931.00;;;;336892;28;89199;-88
2021/11/08 00:22:39;;;;;;;;;;;9.20;99.90;9.60;99940.00;;;;336379;28;90871;-87
2021/11/08 00:22:51;;;;;;;;;;;9.20;99.90;9.60;99935.00;;;;337286;28;88420;-88
2021/11/08 00:23:08;;;;;;;;;;;9.20;99.90;9.60;99938.00;;;;335306;29;88430;-88
2021/11/08 00:23:20;;;;;;;;;;;9.20;99.90;9.60;99940.00;;;;334952;29;87058;-87
2021/11/08 00:23:32;;;;;;;;;;;9.20;99.90;9.60;99932.00;;;;337888;28;88367;-87
2021/11/08 00:23:45;;;;;;;;;;;9.20;99.90;9.60;99933.00;;;;336360;28;87027;-88
2021/11/08 00:23:56;;;;;;;;;;;9.20;99.90;9.60;99941.00;;;;333959;29;88114;-88
2021/11/08 00:24:10;;;;;;;;;;;9.20;99.90;9.60;99947.00;;;;335072;29;86909;-87
2021/11/08 00:24:27;;;;;;;;;;;9.20;99.90;9.60;99941.00;;;;335222;29;89993;-88
2021/11/08 00:24:40;;;;;;;;;;;9.20;99.90;9.60;99938.00;;;;334768;29;87972;-88
2021/11/08 00:24:52;;;;;;;;;;;9.20;99.90;9.60;99934.00;;;;336533;28;89146;-88
2021/11/08 00:25:04;;;;;;;;;;;9.20;99.90;9.60;99939.00;;;;337235;28;87778;-88
2021/11/08 00:25:16;;;;;;;;;;;9.20;99.90;9.60;99938.00;;;;336524;28;87719;-88
2021/11/08 00:25:29;;;;;;;;;;;9.20;99.90;9.60;99944.00;;;;336240;28;86918;-87
2021/11/08 00:25:42;;;;;;;;;;;9.20;99.90;9.60;99933.00;;;;334858;29;87981;-87
2021/11/08 00:25:55;;;;;;;;;;;9.20;99.90;9.60;99937.00;;;;336193;28;87205;-87
2021/11/08 00:26:07;;;;;;;;;;;9.20;99.90;9.60;99934.00;;;;337704;28;90997;-88
2021/11/08 00:26:19;;;;;;;;;;;9.20;99.90;9.60;99929.00;;;;337514;28;87193;-88
2021/11/08 00:26:30;;;;;;;;;;;9.20;99.90;9.60;99932.00;;;;339075;28;89300;-88
2021/11/08 00:26:43;;;;;;;;;;;9.20;99.90;9.70;99932.00;;;;337484;28;87941;-88
2021/11/08 00:26:54;;;;;;;;;;;9.20;99.90;9.70;99926.00;;;;338945;28;90582;-88
2021/11/08 00:27:06;;;;;;;;;;;9.20;99.90;9.70;99930.00;;;;337709;28;85955;-88
2021/11/08 00:27:19;;;;;;;;;;;9.20;99.90;9.70;99934.00;;;;335209;29;88743;-87
2021/11/08 00:27:30;;;;;;;;;;;9.30;99.90;9.60;99934.00;;;;337567;28;88291;-87
2021/11/08 00:27:43;;;;;;;;;;;9.30;99.90;9.60;99931.00;;;;336467;28;88408;-87
2021/11/08 00:27:55;;;;;;;;;;;9.20;99.90;9.60;99930.00;;;;336425;28;86739;-87
2021/11/08 00:28:08;;;;;;;;;;;9.20;99.90;9.60;99930.00;;;;337829;28;88894;-88
2021/11/08 00:28:20;;;;;;;;;;;9.20;99.90;9.60;99931.00;;;;335922;28;88123;-88
2021/11/08 00:28:32;;;;;;;;;;;9.20;99.90;9.60;99930.00;;;;335250;29;89534;-88
2021/11/08 00:28:44;;;;;;;;;;;9.20;99.90;9.70;99928.00;;;;334886;29;87887;-88
2021/11/08 00:28:56;;;;;;;;;;;9.30;99.90;9.70;99931.00;;;;335878;28;88055;-88
2021/11/08 00:29:07;;;;;;;;;;;9.20;99.90;9.60;99934.00;;;;333614;29;87102;-88
2021/11/08 00:29:19;;;;;;;;;;;9.30;99.90;9.60;99930.00;;;;334946;29;91315;-87
2021/11/08 00:29:31;;;;;;;;;;;9.20;99.90;9.60;99929.00;;;;336154;28;86245;-87
2021/11/08 00:29:44;;;;;;;;;;;9.20;99.90;9.60;99928.00;;;;337616;28;89960;-88
2021/11/08 00:29:56;;;;;;;;;;;9.20;99.90;9.60;99931.00;;;;334923;29;86746;-87
2021/11/08 00:30:08;;;;;;;;;;;9.20;99.90;9.60;99928.00;;;;335268;28;88535;-88
2021/11/08 00:30:20;;;;;;;;;;;9.20;99.90;9.70;99922.00;;;;335079;29;86915;-88
2021/11/08 00:30:32;;;;;;;;;;;9.20;99.90;9.70;99930.00;;;;333852;29;91334;-87
2021/11/08 00:30:44;;;;;;;;;;;9.30;99.90;9.70;99927.00;;;;333529;29;87934;-88
2021/11/08 00:30:56;;;;;;;;;;;9.20;99.90;9.70;99933.00;;;;335761;28;90633;-87
2021/11/08 00:31:08;;;;;;;;;;;9.30;99.90;9.70;99931.00;;;;336032;28;87036;-87
2021/11/08 00:31:20;;;;;;;;;;;9.30;99.90;9.60;99924.00;;;;335680;28;88561;-87
2021/11/08 00:31:32;;;;;;;;;;;9.20;99.90;9.50;99937.00;;;;337602;28;86748;-88
2021/11/08 00:31:44;;;;;;;;;;;9.20;99.90;9.60;99934.00;;;;340451;28;88240;-88
2021/11/08 00:31:57;;;;;;;;;;;9.20;99.90;9.50;99929.00;;;;337883;28;88278;-88
2021/11/08 00:32:09;;;;;;;;;;;9.20;99.90;9.60;99932.00;;;;337747;28;90694;-87
2021/11/08 00:32:21;;;;;;;;;;;9.20;99.90;9.60;99932.00;;;;337571;28;87004;-88
2021/11/08 00:32:35;;;;;;;;;;;9.20;99.90;9.60;99929.00;;;;335001;29;90775;-87
2021/11/08 00:32:47;;;;;;;;;;;9.20;99.90;9.70;99932.00;;;;336061;28;87898;-87
2021/11/08 00:32:58;;;;;;;;;;;9.20;99.90;9.70;99933.00;;;;338773;28;90785;-87
2021/11/08 00:33:17;;;;;;;;;;;9.20;99.90;9.70;99933.00;;;;336169;28;87464;-87
2021/11/08 00:33:29;;;;;;;;;;;9.20;99.90;9.60;99940.00;;;;337885;28;88280;-88
2021/11/08 00:33:41;;;;;;;;;;;9.20;99.90;9.60;99936.00;;;;337672;28;86700;-87
2021/11/08 00:33:53;;;;;;;;;;;9.20;99.90;9.60;99935.00;;;;336604;28;88948;-88
2021/11/08 00:34:05;;;;;;;;;;;9.20;99.90;9.60;99932.00;;;;335538;28;86991;-87
2021/11/08 00:34:16;;;;;;;;;;;9.20;99.90;9.60;99939.00;;;;340279;28;88483;-88
2021/11/08 00:34:28;;;;;;;;;;;9.20;99.90;9.60;99940.00;;;;337608;28;86855;-87
2021/11/08 00:34:40;;;;;;;;;;;9.20;99.90;9.60;99939.00;;;;336457;28;89877;-88
2021/11/08 00:34:52;;;;;;;;;;;9.20;99.90;9.60;99936.00;;;;337321;28;88118;-87
2021/11/08 00:35:05;;;;;;;;;;;9.20;99.90;9.60;99935.00;;;;337843;28;89107;-87
2021/11/08 00:35:16;;;;;;;;;;;9.20;99.90;9.60;99937.00;;;;337613;28;86890;-88
2021/11/08 00:35:28;;;;;;;;;;;9.20;99.90;9.60;99933.00;;;;336518;28;90340;-87
2021/11/08 00:35:48;;;;;;;;;;;9.20;99.90;9.70;99941.00;;;;336274;28;87977;-87
2021/11/08 00:36:00;;;;;;;;;;;9.20;99.90;9.60;99940.00;;;;337880;28;88189;-87
2021/11/08 00:36:12;;;;;;;;;;;9.20;99.90;9.60;99935.00;;;;340321;28;86918;-87
2021/11/08 00:36:23;;;;;;;;;;;9.20;99.90;9.70;99931.00;;;;337812;28;89539;-88
2021/11/08 00:36:35;;;;;;;;;;;9.20;99.90;9.70;99940.00;;;;337499;28;87082;-88
2021/11/08 00:36:50;;;;;;;;;;;9.20;99.90;9.70;99939.00;;;;337635;28;90793;-88
2021/11/08 00:37:02;;;;;;;;;;;9.20;99.90;9.70;99930.00;;;;335782;28;88015;-87
2021/11/08 00:37:14;;;;;;;;;;;9.30;99.90;9.70;99931.00;;;;332696;29;88004;-87
2021/11/08 00:37:26;;;;;;;;;;;9.30;99.90;9.60;99930.00;;;;335047;29;87259;-87
2021/11/08 00:37:37;;;;;;;;;;;9.30;99.90;9.70;99934.00;;;;336645;28;87232;-87
2021/11/08 00:37:49;;;;;;;;;;;9.20;99.90;9.70;99940.00;;;;335002;29;87472;-88
2021/11/08 00:38:01;;;;;;;;;;;9.30;99.90;9.70;99943.00;;;;336533;28;88513;-87
2021/11/08 00:38:13;;;;;;;;;;;9.20;99.90;9.60;99942.00;;;;337624;28;85988;-87
2021/11/08 00:38:25;;;;;;;;;;;9.20;99.90;9.60;99945.00;;;;336509;28;88294;-87
2021/11/08 00:38:37;;;;;;;;;;;9.20;99.90;9.60;99947.00;;;;336221;28;87057;-87
2021/11/08 00:38:50;;;;;;;;;;;9.20;99.90;9.60;99935.00;;;;336520;28;88568;-87
2021/11/08 00:39:02;;;;;;;;;;;9.20;99.90;9.60;99941.00;;;;336247;28;89249;-87
2021/11/08 00:39:14;;;;;;;;;;;9.20;99.90;9.60;99940.00;;;;335142;29;89678;-87
2021/11/08 00:39:26;;;;;;;;;;;9.20;99.90;9.60;99939.00;;;;334946;29;88408;-88
2021/11/08 00:39:38;;;;;;;;;;;9.20;99.90;9.70;99938.00;;;;334877;29;91665;-87
2021/11/08 00:39:50;;;;;;;;;;;9.20;99.90;9.50;99945.00;;;;335085;28;87012;-87
2021/11/08 00:40:04;;;;;;;;;;;9.20;99.90;9.50;99948.00;;;;336068;28;90675;-88
2021/11/08 00:40:16;;;;;;;;;;;9.20;99.90;9.60;99943.00;;;;335088;29;86205;-87
2021/11/08 00:40:27;;;;;;;;;;;9.20;99.90;9.60;99939.00;;;;336169;28;90841;-88
2021/11/08 00:40:39;;;;;;;;;;;9.20;99.90;9.60;99943.00;;;;336335;28;86087;-88
2021/11/08 00:40:51;;;;;;;;;;;9.20;99.90;9.60;99954.00;;;;336475;28;90295;-87
2021/11/08 00:41:03;;;;;;;;;;;9.20;99.90;9.60;99952.00;;;;336335;28;87981;-87
2021/11/08 00:41:15;;;;;;;;;;;9.20;99.90;9.60;99948.00;;;;337769;28;92418;-87
2021/11/08 00:41:28;;;;;;;;;;;9.20;99.90;9.60;99952.00;;;;337422;28;87204;-88
2021/11/08 00:41:44;;;;;;;;;;;9.20;99.90;9.60;99942.00;;;;337529;28;89775;-88
2021/11/08 00:41:56;;;;;;;;;;;9.20;99.90;9.60;99951.00;;;;338783;28;88706;-87
2021/11/08 00:42:08;;;;;;;;;;;9.20;99.90;9.60;99946.00;;;;336431;28;87960;-87
2021/11/08 00:42:20;;;;;;;;;;;9.20;99.90;9.60;99943.00;;;;337639;28;86987;-87
2021/11/08 00:42:32;;;;;;;;;;;9.20;99.90;9.60;99946.00;;;;341803;28;88408;-87
2021/11/08 00:42:43;;;;;;;;;;;9.20;99.90;9.60;99957.00;;;;340212;28;86979;-88
2021/11/08 00:42:55;;;;;;;;;;;9.20;99.90;9.50;99953.00;;;;340260;28;90438;-87
2021/11/08 00:43:07;;;;;;;;;;;9.20;99.90;9.60;99954.00;;;;340095;28;88024;-87
2021/11/08 00:43:19;;;;;;;;;;;9.20;99.90;9.60;99949.00;;;;337628;28;92097;-87
2021/11/08 00:43:31;;;;;;;;;;;9.20;99.90;9.60;99954.00;;;;337644;28;86975;-87
2021/11/08 00:43:42;;;;;;;;;;;9.20;99.90;9.60;99953.00;;;;336531;28;90945;-88
2021/11/08 00:43:54;;;;;;;;;;;9.20;99.90;9.60;99950.00;;;;336932;28;87533;-87
2021/11/08 00:44:06;;;;;;;;;;;9.20;99.90;9.60;99944.00;;;;336481;28;90910;-88
2021/11/08 00:44:18;;;;;;;;;;;9.20;99.90;9.60;99946.00;;;;338942;28;88309;-87
2021/11/08 00:44:30;;;;;;;;;;;9.20;99.90;9.60;99946.00;;;;340404;28;90769;-88
2021/11/08 00:44:41;;;;;;;;;;;9.20;99.90;9.60;99953.00;;;;337304;28;88257;-87
2021/11/08 00:44:54;;;;;;;;;;;9.20;99.90;9.50;99949.00;;;;335007;29;90686;-87
2021/11/08 00:45:07;;;;;;;;;;;9.30;99.90;9.50;99957.00;;;;337526;28;87841;-87
2021/11/08 00:45:20;;;;;;;;;;;9.20;99.90;9.60;99951.00;;;;336423;28;91410;-87
2021/11/08 00:45:33;;;;;;;;;;;9.20;99.90;9.60;99941.00;;;;337566;28;87055;-87
2021/11/08 00:45:45;;;;;;;;;;;9.20;99.90;9.60;99942.00;;;;340467;28;89716;-87
2021/11/08 00:45:56;;;;;;;;;;;9.20;99.90;9.50;99949.00;;;;335524;28;86996;-87
2021/11/08 00:46:08;;;;;;;;;;;9.20;99.90;9.60;99950.00;;;;333849;29;90329;-88
2021/11/08 00:46:20;;;;;;;;;;;9.20;99.90;9.60;99944.00;;;;336428;28;87805;-87
2021/11/08 00:46:32;;;;;;;;;;;9.20;99.90;9.60;99950.00;;;;337730;28;90845;-87
2021/11/08 00:46:44;;;;;;;;;;;9.20;99.90;9.60;99945.00;;;;337604;28;86761;-87
2021/11/08 00:46:56;;;;;;;;;;;9.20;99.90;9.70;99944.00;;;;336431;28;90619;-87
2021/11/08 00:47:08;;;;;;;;;;;9.20;99.90;9.60;99952.00;;;;337545;28;87845;-87
2021/11/08 00:47:20;;;;;;;;;;;9.20;99.90;9.60;99943.00;;;;337763;28;91458;-87
2021/11/08 00:47:34;;;;;;;;;;;9.20;99.90;9.60;99944.00;;;;337558;28;86183;-87
2021/11/08 00:47:45;;;;;;;;;;;9.20;99.90;9.60;99947.00;;;;336582;28;88588;-87
2021/11/08 00:47:58;;;;;;;;;;;9.20;99.90;9.60;99949.00;;;;336135;28;88649;-88
2021/11/08 00:48:10;;;;;;;;;;;9.20;99.90;9.60;99948.00;;;;340504;28;89706;-87
2021/11/08 00:48:24;;;;;;;;;;;9.20;99.90;9.60;99950.00;;;;336363;28;86505;-87
2021/11/08 00:48:37;;;;;;;;;;;9.20;99.90;9.60;99949.00;;;;338768;28;89996;-87
2021/11/08 00:48:50;;;;;;;;;;;9.20;99.90;9.60;99954.00;;;;338649;28;86049;-87
2021/11/08 00:49:02;;;;;;;;;;;9.20;99.90;9.60;99940.00;;;;335057;29;88479;-87
2021/11/08 00:49:14;;;;;;;;;;;9.20;99.90;9.50;99955.00;;;;334902;29;87847;-87
2021/11/08 00:49:27;;;;;;;;;;;9.20;99.90;9.60;99949.00;;;;336361;28;91819;-87
2021/11/08 00:49:40;;;;;;;;;;;9.20;99.90;9.50;99946.00;;;;337566;28;87875;-87
2021/11/08 00:49:53;;;;;;;;;;;9.20;99.90;9.60;99953.00;;;;339030;28;90589;-87
2021/11/08 00:50:06;;;;;;;;;;;9.20;99.90;9.50;99952.00;;;;338874;28;87581;-87
2021/11/08 00:50:18;;;;;;;;;;;9.20;99.90;9.60;99944.00;;;;336471;28;91729;-87
2021/11/08 00:50:29;;;;;;;;;;;9.20;99.90;9.60;99949.00;;;;337472;28;86883;-87
2021/11/08 00:50:42;;;;;;;;;;;9.20;99.90;9.60;99940.00;;;;337771;28;91612;-87
2021/11/08 00:50:54;;;;;;;;;;;9.20;99.90;9.60;99945.00;;;;335015;29;86831;-88
2021/11/08 00:51:05;;;;;;;;;;;9.20;99.90;9.50;99950.00;;;;337789;28;90679;-87
2021/11/08 00:51:18;;;;;;;;;;;9.20;99.90;9.60;99947.00;;;;336163;28;87998;-87
2021/11/08 00:51:34;;;;;;;;;;;9.20;99.90;9.50;99940.00;;;;336466;28;89287;-87
2021/11/08 00:51:46;;;;;;;;;;;9.20;99.90;9.60;99947.00;;;;334978;29;86881;-88
2021/11/08 00:51:58;;;;;;;;;;;9.20;99.90;9.50;99940.00;;;;336087;28;89752;-87
2021/11/08 00:52:11;;;;;;;;;;;9.20;99.90;9.50;99940.00;;;;334564;29;87022;-87
2021/11/08 00:52:23;;;;;;;;;;;9.20;99.90;9.60;99942.00;;;;336456;28;91059;-87
2021/11/08 00:52:35;;;;;;;;;;;9.20;99.90;9.50;99941.00;;;;336129;28;87945;-88
2021/11/08 00:52:48;;;;;;;;;;;9.20;99.90;9.50;99945.00;;;;335267;29;90344;-87
2021/11/08 00:53:00;;;;;;;;;;;9.20;99.90;9.60;99942.00;;;;336266;28;87241;-87
2021/11/08 00:53:12;;;;;;;;;;;9.20;99.90;9.60;99945.00;;;;335187;29;90630;-88
2021/11/08 00:53:27;;;;;;;;;;;9.20;99.90;9.60;99945.00;;;;337488;28;87997;-87
2021/11/08 00:53:39;;;;;;;;;;;9.20;99.90;9.60;99949.00;;;;337754;28;92678;-87
2021/11/08 00:53:51;;;;;;;;;;;9.20;99.90;9.60;99941.00;;;;337526;28;88106;-88
2021/11/08 00:54:08;;;;;;;;;;;9.20;99.90;9.60;99947.00;;;;339056;28;90884;-88
2021/11/08 00:54:20;;;;;;;;;;;9.20;99.90;9.60;99948.00;;;;340417;28;86883;-87
2021/11/08 00:54:32;;;;;;;;;;;9.20;99.90;9.60;99947.00;;;;341537;28;90567;-88
2021/11/08 00:54:43;;;;;;;;;;;9.20;99.90;9.60;99946.00;;;;340224;28;88398;-87
2021/11/08 00:54:58;;;;;;;;;;;9.20;99.90;9.60;99950.00;;;;342637;28;90971;-87
2021/11/08 00:55:10;;;;;;;;;;;9.20;99.90;9.60;99947.00;;;;342785;28;88562;-87
2021/11/08 00:55:25;;;;;;;;;;;9.20;99.90;9.50;99944.00;;;;340319;28;90842;-87
2021/11/08 00:55:39;;;;;;;;;;;9.20;99.90;9.60;99950.00;;;;341530;28;87906;-87
2021/11/08 00:55:53;;;;;;;;;;;9.20;99.90;9.50;99950.00;;;;340480;28;89224;-87
2021/11/08 00:56:09;;;;;;;;;;;9.20;99.90;9.50;99954.00;;;;341629;28;86932;-88
2021/11/08 00:56:23;;;;;;;;;;;9.20;99.90;9.50;99952.00;;;;341830;28;90489;-87
2021/11/08 00:56:35;;;;;;;;;;;9.20;99.90;9.50;99945.00;;;;339014;28;86819;-87
2021/11/08 00:56:50;;;;;;;;;;;9.20;99.90;9.60;99952.00;;;;340368;28;90605;-87
2021/11/08 00:57:02;;;;;;;;;;;9.20;99.90;9.50;99955.00;;;;340381;28;87667;-88
2021/11/08 00:57:19;;;;;;;;;;;9.20;99.90;9.50;99945.00;;;;340488;28;90478;-87
2021/11/08 00:57:35;;;;;;;;;;;9.20;99.90;9.60;99944.00;;;;344314;28;87349;-88
2021/11/08 00:57:48;;;;;;;;;;;9.20;99.90;9.60;99947.00;;;;340434;28;90357;-87
2021/11/08 00:58:02;;;;;;;;;;;9.20;99.90;9.50;99944.00;;;;339835;28;88009;-87
2021/11/08 00:58:19;;;;;;;;;;;9.20;99.90;9.50;99947.00;;;;340560;28;90397;-87
2021/11/08 00:58:37;;;;;;;;;;;9.20;99.90;9.60;99950.00;;;;342960;28;87530;-87
2021/11/08 00:58:49;;;;;;;;;;;9.10;99.90;9.50;99941.00;;;;340627;28;87260;-87
2021/11/08 00:59:01;;;;;;;;;;;9.20;99.90;9.60;99950.00;;;;340306;28;88326;-88
2021/11/08 00:59:14;;;;;;;;;;;9.20;99.90;9.60;99952.00;;;;340453;28;88750;-87
2021/11/08 00:59:27;;;;;;;;;;;9.20;99.90;9.60;99953.00;;;;340240;28;87916;-87
2021/11/08 00:59:43;;;;;;;;;;;9.20;99.90;9.50;99935.00;;;;343283;28;88104;-87
2021/11/08 00:59:55;;;;;;;;;;;9.20;99.90;9.50;99954.00;;;;341615;28;87904;-87
2021/11/08 01:00:08;;;;;;;;;;;9.20;99.90;9.60;99953.00;;;;341897;28;88594;-88
2021/11/08 01:00:24;;;;;;;;;;;9.20;99.90;9.50;99957.00;;;;339056;28;87911;-88
2021/11/08 01:00:36;;;;;;;;;;;9.20;99.90;9.60;99944.00;;;;341742;28;91790;-88
2021/11/08 01:00:49;;;;;;;;;;;9.20;99.90;9.60;99947.00;;;;340222;28;88357;-87
2021/11/08 01:01:06;;;;;;;;;;;9.20;99.90;9.60;99951.00;;;;341283;28;88762;-87
2021/11/08 01:01:20;;;;;;;;;;;9.20;99.90;9.50;99948.00;;;;340177;28;87738;-87
2021/11/08 01:01:32;;;;;;;;;;;9.20;99.90;9.50;99957.00;;;;343152;28;90566;-87
2021/11/08 01:01:47;;;;;;;;;;;9.20;99.90;9.50;99947.00;;;;342737;28;86929;-88
2021/11/08 01:01:59;;;;;;;;;;;9.20;99.90;9.50;99952.00;;;;342695;28;90203;-87
2021/11/08 01:02:12;;;;;;;;;;;9.20;99.90;9.50;99955.00;;;;341518;28;88467;-88
2021/11/08 01:02:29;;;;;;;;;;;9.20;99.90;9.50;99954.00;;;;341882;28;90857;-88
2021/11/08 01:02:41;;;;;;;;;;;9.10;99.90;9.50;99951.00;;;;342950;28;87856;-88
2021/11/08 01:02:53;;;;;;;;;;;9.20;99.90;9.60;99948.00;;;;341807;28;91876;-87
2021/11/08 01:03:06;;;;;;;;;;;9.20;99.90;9.60;99944.00;;;;342966;28;87765;-88
2021/11/08 01:03:21;;;;;;;;;;;9.10;99.90;9.60;99958.00;;;;341831;28;89622;-86
2021/11/08 01:03:35;;;;;;;;;;;9.20;99.90;9.60;99952.00;;;;343026;28;86870;-88
2021/11/08 01:03:47;;;;;;;;;;;9.20;99.90;9.60;99950.00;;;;340504;28;91038;-87
2021/11/08 01:03:59;;;;;;;;;;;9.20;99.90;9.60;99953.00;;;;342469;28;88405;-88
2021/11/08 01:04:11;;;;;;;;;;;9.20;99.90;9.60;99956.00;;;;345573;28;88272;-88
2021/11/08 01:04:24;;;;;;;;;;;9.20;99.90;9.50;99949.00;;;;341618;28;86855;-87
2021/11/08 01:04:37;;;;;;;;;;;9.20;99.90;9.60;99958.00;;;;341814;28;90576;-88
2021/11/08 01:04:49;;;;;;;;;;;9.20;99.90;9.60;99950.00;;;;342905;28;88001;-87
2021/11/08 01:05:01;;;;;;;;;;;9.20;99.90;9.60;99959.00;;;;343098;28;93324;-87
2021/11/08 01:05:15;;;;;;;;;;;9.20;99.90;9.60;99948.00;;;;340223;28;87057;-87
2021/11/08 01:05:27;;;;;;;;;;;9.20;99.90;9.60;99948.00;;;;341872;28;90705;-87
2021/11/08 01:05:42;;;;;;;;;;;9.20;99.90;9.60;99948.00;;;;343028;28;88422;-87
2021/11/08 01:05:53;;;;;;;;;;;9.20;99.90;9.60;99949.00;;;;341769;28;89755;-87
2021/11/08 01:06:06;;;;;;;;;;;9.20;99.90;9.60;99943.00;;;;341700;28;86831;-88
2021/11/08 01:06:18;;;;;;;;;;;9.20;99.90;9.60;99949.00;;;;341880;28;88520;-87
2021/11/08 01:06:30;;;;;;;;;;;9.20;99.90;9.60;99951.00;;;;342980;28;87997;-87
2021/11/08 01:06:42;;;;;;;;;;;9.20;99.90;9.70;99947.00;;;;343005;28;90882;-88
2021/11/08 01:06:58;;;;;;;;;;;9.20;99.90;9.70;99938.00;;;;343095;28;88174;-87
2021/11/08 01:07:10;;;;;;;;;;;9.20;99.90;9.60;99948.00;;;;339847;28;91726;-87
2021/11/08 01:07:21;;;;;;;;;;;9.20;99.90;9.60;99943.00;;;;340496;28;87311;-87
2021/11/08 01:07:33;;;;;;;;;;;9.20;99.90;9.60;99949.00;;;;341862;28;89583;-87
2021/11/08 01:07:45;;;;;;;;;;;9.20;99.90;9.60;99934.00;;;;341620;28;86907;-88
2021/11/08 01:07:58;;;;;;;;;;;9.20;99.90;9.60;99938.00;;;;341266;28;88073;-87
2021/11/08 01:08:10;;;;;;;;;;;9.20;99.90;9.50;99939.00;;;;338997;28;86702;-87
2021/11/08 01:08:22;;;;;;;;;;;9.20;99.90;9.60;99933.00;;;;341806;28;90147;-87
2021/11/08 01:08:35;;;;;;;;;;;9.20;99.90;9.60;99937.00;;;;342773;28;87068;-87